Time,TemperatureF,DewpointF,PressureIn,WindDirection,WindDirectionDegrees,WindSpeedMPH,WindSpeedGustMPH,Humidity,HourlyPrecipIn,Conditions,Clouds,dailyrainin,SoftwareType,DateUTC
2013-09-21 00:01:00,69.1,67.0,29.84,NNE,13,1.0,7.0,92,0.00,,,0.00,weatherlink.com 1.10,2013-09-21 06:01:00,
2013-09-21 00:16:00,68.9,66.0,29.84,NNW,345,0.0,13.0,90,0.00,,,0.00,weatherlink.com 1.10,2013-09-21 06:16:00,
2013-09-21 00:31:00,68.1,65.0,29.84,NW,309,0.0,10.0,90,0.00,,,0.00,weatherlink.com 1.10,2013-09-21 06:31:00,
2013-09-21 00:46:00,67.5,64.0,29.84,WNW,300,4.0,9.0,89,0.00,,,0.00,weatherlink.com 1.10,2013-09-21 06:46:00,
2013-09-21 01:01:00,67.1,64.0,29.84,NW,309,0.0,7.0,89,0.00,,,0.00,weatherlink.com 1.10,2013-09-21 07:01:00,
2013-09-21 01:16:00,66.7,63.0,29.84,North,6,0.0,7.0,89,0.00,,,0.00,weatherlink.com 1.10,2013-09-21 07:16:00,
2013-09-21 01:31:00,66.4,63.0,29.84,WNW,293,3.0,8.0,89,0.00,,,0.00,weatherlink.com 1.10,2013-09-21 07:31:00,
2013-09-21 01:46:00,66.1,63.0,29.84,NNE,19,1.0,9.0,88,0.00,,,0.00,weatherlink.com 1.10,2013-09-21 07:46:00,
2013-09-21 02:00:00,65.8,62.0,29.84,WNW,288,2.0,9.0,87,0.00,,,0.00,weatherlink.com 1.10,2013-09-21 08:00:00,
2013-09-21 02:15:00,65.4,62.0,29.84,NNW,330,0.0,7.0,87,0.00,,,0.00,weatherlink.com 1.10,2013-09-21 08:15:00,
2013-09-21 02:31:00,64.9,61.0,29.84,WNW,301,5.0,13.0,86,0.00,,,0.00,weatherlink.com 1.10,2013-09-21 08:31:00,
2013-09-21 02:46:00,64.6,60.0,29.84,NW,321,0.0,10.0,86,0.00,,,0.00,weatherlink.com 1.10,2013-09-21 08:46:00,
2013-09-21 03:01:00,64.3,60.0,29.84,NW,304,1.0,6.0,86,0.00,,,0.00,weatherlink.com 1.10,2013-09-21 09:01:00,
2013-09-21 03:16:00,64.1,60.0,29.84,NW,304,7.0,10.0,86,0.00,,,0.00,weatherlink.com 1.10,2013-09-21 09:16:00,
2013-09-21 03:31:00,63.7,60.0,29.84,WNW,285,0.0,10.0,86,0.00,,,0.00,weatherlink.com 1.10,2013-09-21 09:31:00,
2013-09-21 03:46:00,63.5,59.0,29.85,NNW,333,3.0,13.0,86,0.00,,,0.00,weatherlink.com 1.10,2013-09-21 09:46:00,
2013-09-21 04:01:00,63.2,59.0,29.85,NW,316,7.0,8.0,86,0.00,,,0.00,weatherlink.com 1.10,2013-09-21 10:01:00,
2013-09-21 04:16:00,63.0,59.0,29.85,NW,312,3.0,10.0,87,0.00,,,0.00,weatherlink.com 1.10,2013-09-21 10:16:00,
2013-09-21 04:31:00,62.9,59.0,29.85,WNW,298,2.0,5.0,88,0.00,,,0.00,weatherlink.com 1.10,2013-09-21 10:31:00,
2013-09-21 04:46:00,62.6,59.0,29.85,NNW,332,0.0,8.0,88,0.00,,,0.00,weatherlink.com 1.10,2013-09-21 10:46:00,
2013-09-21 05:01:00,62.3,59.0,29.85,NNW,330,5.0,6.0,88,0.00,,,0.00,weatherlink.com 1.10,2013-09-21 11:01:00,
2013-09-21 05:16:00,62.1,59.0,29.86,North,360,0.0,7.0,88,0.00,,,0.00,weatherlink.com 1.10,2013-09-21 11:16:00,
2013-09-21 05:31:00,62.0,59.0,29.86,WNW,301,5.0,9.0,89,0.00,,,0.00,weatherlink.com 1.10,2013-09-21 11:31:00,
2013-09-21 05:46:00,61.8,58.0,29.87,NNW,331,1.0,8.0,88,0.00,,,0.00,weatherlink.com 1.10,2013-09-21 11:46:00,
2013-09-21 06:01:00,61.4,58.0,29.87,NW,316,0.0,6.0,89,0.00,,,0.00,weatherlink.com 1.10,2013-09-21 12:01:00,
2013-09-21 06:16:00,61.4,58.0,29.88,NW,323,1.0,6.0,89,0.00,,,0.00,weatherlink.com 1.10,2013-09-21 12:16:00,
2013-09-21 06:32:00,61.4,58.0,29.88,North,11,1.0,8.0,89,0.00,,,0.00,weatherlink.com 1.10,2013-09-21 12:32:00,
2013-09-21 06:47:00,61.3,58.0,29.88,NW,326,2.0,9.0,89,0.00,,,0.00,weatherlink.com 1.10,2013-09-21 12:47:00,
2013-09-21 07:02:00,62.8,59.0,29.88,NNE,15,0.0,10.0,86,0.00,,,0.00,weatherlink.com 1.10,2013-09-21 13:02:00,
2013-09-21 07:17:00,64.2,59.0,29.88,WNW,298,2.0,9.0,82,0.00,,,0.00,weatherlink.com 1.10,2013-09-21 13:17:00,
2013-09-21 07:32:00,65.0,58.0,29.89,NW,304,10.0,15.0,79,0.00,,,0.00,weatherlink.com 1.10,2013-09-21 13:32:00,
2013-09-21 07:47:00,66.0,58.0,29.89,NW,311,2.0,11.0,76,0.00,,,0.00,weatherlink.com 1.10,2013-09-21 13:47:00,
2013-09-21 08:02:00,66.6,58.0,29.90,NNE,16,1.0,16.0,74,0.00,,,0.00,weatherlink.com 1.10,2013-09-21 14:02:00,
2013-09-21 08:17:00,67.7,58.0,29.90,NW,304,2.0,11.0,72,0.00,,,0.00,weatherlink.com 1.10,2013-09-21 14:17:00,
2013-09-21 08:32:00,68.6,58.0,29.90,West,278,5.0,18.0,69,0.00,,,0.00,weatherlink.com 1.10,2013-09-21 14:32:00,
2013-09-21 08:47:00,69.4,57.0,29.91,NNW,335,3.0,17.0,66,0.00,,,0.00,weatherlink.com 1.10,2013-09-21 14:47:00,
2013-09-21 09:02:00,70.3,58.0,29.91,WNW,299,9.0,16.0,65,0.00,,,0.00,weatherlink.com 1.10,2013-09-21 15:02:00,
2013-09-21 09:16:00,71.4,58.0,29.91,NNW,330,1.0,13.0,63,0.00,,,0.00,weatherlink.com 1.10,2013-09-21 15:16:00,
2013-09-21 09:31:00,72.2,58.0,29.90,NNW,330,4.0,14.0,61,0.00,,,0.00,weatherlink.com 1.10,2013-09-21 15:31:00,
2013-09-21 09:47:00,73.5,58.0,29.90,NW,315,2.0,15.0,59,0.00,,,0.00,weatherlink.com 1.10,2013-09-21 15:47:00,
2013-09-21 10:02:00,74.0,57.0,29.90,NE,44,6.0,10.0,56,0.00,,,0.00,weatherlink.com 1.10,2013-09-21 16:02:00,
2013-09-21 10:17:00,74.9,57.0,29.90,North,8,3.0,16.0,54,0.00,,,0.00,weatherlink.com 1.10,2013-09-21 16:17:00,
2013-09-21 10:32:00,75.6,57.0,29.90,NW,323,10.0,13.0,52,0.00,,,0.00,weatherlink.com 1.10,2013-09-21 16:32:00,
2013-09-21 10:47:00,76.5,58.0,29.89,NNW,346,4.0,13.0,53,0.00,,,0.00,weatherlink.com 1.10,2013-09-21 16:47:00,
2013-09-21 11:02:00,76.7,58.0,29.89,NNW,338,0.0,12.0,52,0.00,,,0.00,weatherlink.com 1.10,2013-09-21 17:02:00,
2013-09-21 11:17:00,77.2,57.0,29.88,West,274,3.0,11.0,50,0.00,,,0.00,weatherlink.com 1.10,2013-09-21 17:17:00,
2013-09-21 11:32:00,77.8,56.0,29.88,NW,314,3.0,10.0,47,0.00,,,0.00,weatherlink.com 1.10,2013-09-21 17:32:00,
2013-09-21 11:47:00,77.9,54.0,29.88,NW,305,5.0,9.0,44,0.00,,,0.00,weatherlink.com 1.10,2013-09-21 17:47:00,
2013-09-21 12:02:00,78.5,54.0,29.87,WNW,292,5.0,14.0,43,0.00,,,0.00,weatherlink.com 1.10,2013-09-21 18:02:00,
2013-09-21 12:17:00,79.5,54.0,29.87,NNE,27,8.0,9.0,42,0.00,,,0.00,weatherlink.com 1.10,2013-09-21 18:17:00,
2013-09-21 12:32:00,80.1,52.0,29.86,NW,316,1.0,19.0,38,0.00,,,0.00,weatherlink.com 1.10,2013-09-21 18:32:00,
2013-09-21 12:47:00,80.1,51.0,29.86,North,5,0.0,13.0,36,0.00,,,0.00,weatherlink.com 1.10,2013-09-21 18:47:00,
2013-09-21 13:02:00,81.1,51.0,29.85,NNW,333,3.0,13.0,35,0.00,,,0.00,weatherlink.com 1.10,2013-09-21 19:02:00,
2013-09-21 13:17:00,81.2,52.0,29.84,NNW,342,1.0,12.0,37,0.00,,,0.00,weatherlink.com 1.10,2013-09-21 19:17:00,
2013-09-21 13:32:00,81.3,52.0,29.84,NNW,343,0.0,14.0,36,0.00,,,0.00,weatherlink.com 1.10,2013-09-21 19:32:00,
2013-09-21 13:47:00,81.9,53.0,29.83,NNE,13,0.0,7.0,37,0.00,,,0.00,weatherlink.com 1.10,2013-09-21 19:47:00,
2013-09-21 14:02:00,82.1,53.0,29.83,NW,305,2.0,12.0,36,0.00,,,0.00,weatherlink.com 1.10,2013-09-21 20:02:00,
2013-09-21 14:17:00,82.5,51.0,29.82,NW,314,1.0,12.0,33,0.00,,,0.00,weatherlink.com 1.10,2013-09-21 20:17:00,
2013-09-21 14:32:00,82.5,50.0,29.82,NW,318,3.0,17.0,32,0.00,,,0.00,weatherlink.com 1.10,2013-09-21 20:32:00,
2013-09-21 14:47:00,82.9,52.0,29.81,North,350,2.0,12.0,34,0.00,,,0.00,weatherlink.com 1.10,2013-09-21 20:47:00,
2013-09-21 15:02:00,83.0,52.0,29.81,NNW,332,3.0,13.0,34,0.00,,,0.00,weatherlink.com 1.10,2013-09-21 21:02:00,
2013-09-21 15:17:00,83.2,50.0,29.81,NNW,344,1.0,11.0,31,0.00,,,0.00,weatherlink.com 1.10,2013-09-21 21:17:00,
2013-09-21 15:32:00,83.5,51.0,29.80,NNE,13,0.0,11.0,33,0.00,,,0.00,weatherlink.com 1.10,2013-09-21 21:32:00,
2013-09-21 15:47:00,83.4,51.0,29.80,NNE,26,4.0,11.0,32,0.00,,,0.00,weatherlink.com 1.10,2013-09-21 21:47:00,
2013-09-21 16:02:00,82.9,51.0,29.80,NNW,335,0.0,12.0,33,0.00,,,0.00,weatherlink.com 1.10,2013-09-21 22:02:00,
2013-09-21 16:17:00,83.2,50.0,29.80,NW,304,3.0,6.0,32,0.00,,,0.00,weatherlink.com 1.10,2013-09-21 22:17:00,
2013-09-21 16:32:00,82.9,52.0,29.80,NNE,22,6.0,12.0,34,0.00,,,0.00,weatherlink.com 1.10,2013-09-21 22:32:00,
2013-09-21 16:47:00,82.7,51.0,29.80,NE,36,1.0,12.0,33,0.00,,,0.00,weatherlink.com 1.10,2013-09-21 22:47:00,
2013-09-21 17:02:00,82.2,50.0,29.80,NNE,12,0.0,12.0,33,0.00,,,0.00,weatherlink.com 1.10,2013-09-21 23:02:00,
2013-09-21 17:17:00,81.9,51.0,29.80,NW,314,3.0,14.0,34,0.00,,,0.00,weatherlink.com 1.10,2013-09-21 23:17:00,
2013-09-21 17:32:00,81.4,51.0,29.80,NNE,27,2.0,13.0,35,0.00,,,0.00,weatherlink.com 1.10,2013-09-21 23:32:00,
2013-09-21 17:47:00,80.7,51.0,29.80,NNE,25,0.0,5.0,36,0.00,,,0.00,weatherlink.com 1.10,2013-09-21 23:47:00,
2013-09-21 18:03:00,79.7,51.0,29.80,NNE,29,3.0,4.0,37,0.00,,,0.00,weatherlink.com 1.10,2013-09-22 00:03:00,
2013-09-21 18:18:00,77.7,52.0,29.80,NW,323,0.0,2.0,41,0.00,,,0.00,weatherlink.com 1.10,2013-09-22 00:18:00,
2013-09-21 18:33:00,75.7,52.0,29.80,NNW,330,0.0,3.0,44,0.00,,,0.00,weatherlink.com 1.10,2013-09-22 00:33:00,
2013-09-21 18:48:00,74.6,52.0,29.80,NNW,330,0.0,1.0,45,0.00,,,0.00,weatherlink.com 1.10,2013-09-22 00:48:00,
2013-09-21 19:03:00,73.8,52.0,29.80,NNW,340,0.0,1.0,46,0.00,,,0.00,weatherlink.com 1.10,2013-09-22 01:03:00,
2013-09-21 19:18:00,73.6,52.0,29.80,NNW,342,0.0,1.0,47,0.00,,,0.00,weatherlink.com 1.10,2013-09-22 01:18:00,
2013-09-21 19:33:00,73.3,52.0,29.80,North,353,0.0,3.0,48,0.00,,,0.00,weatherlink.com 1.10,2013-09-22 01:33:00,
2013-09-21 19:48:00,73.1,52.0,29.81,NNW,346,0.0,1.0,48,0.00,,,0.00,weatherlink.com 1.10,2013-09-22 01:48:00,
2013-09-21 20:03:00,70.9,53.0,29.82,NE,53,0.0,0.0,54,0.00,,,0.00,weatherlink.com 1.10,2013-09-22 02:03:00,
2013-09-21 20:18:00,70.9,52.0,29.82,NNE,33,0.0,1.0,52,0.00,,,0.00,weatherlink.com 1.10,2013-09-22 02:18:00,
2013-09-21 20:33:00,70.9,52.0,29.82,North,349,0.0,0.0,52,0.00,,,0.00,weatherlink.com 1.10,2013-09-22 02:33:00,
2013-09-21 20:48:00,69.8,52.0,29.82,NNW,348,0.0,0.0,54,0.00,,,0.00,weatherlink.com 1.10,2013-09-22 02:48:00,
2013-09-21 21:03:00,69.0,52.0,29.82,NNW,338,0.0,0.0,56,0.00,,,0.00,weatherlink.com 1.10,2013-09-22 03:03:00,
2013-09-21 21:18:00,68.1,54.0,29.82,NNW,338,0.0,0.0,61,0.00,,,0.00,weatherlink.com 1.10,2013-09-22 03:18:00,
2013-09-21 21:33:00,68.3,53.0,29.82,East,84,0.0,0.0,59,0.00,,,0.00,weatherlink.com 1.10,2013-09-22 03:33:00,
2013-09-21 21:48:00,68.1,53.0,29.83,East,84,0.0,0.0,59,0.00,,,0.00,weatherlink.com 1.10,2013-09-22 03:48:00,
2013-09-21 22:03:00,66.6,54.0,29.83,East,84,0.0,0.0,65,0.00,,,0.00,weatherlink.com 1.10,2013-09-22 04:03:00,
2013-09-21 22:18:00,65.3,54.0,29.83,NW,306,0.0,1.0,68,0.00,,,0.00,weatherlink.com 1.10,2013-09-22 04:18:00,
2013-09-21 22:33:00,64.7,54.0,29.82,NW,306,0.0,0.0,69,0.00,,,0.00,weatherlink.com 1.10,2013-09-22 04:33:00,
2013-09-21 22:48:00,64.1,53.0,29.82,NW,307,0.0,0.0,68,0.00,,,0.00,weatherlink.com 1.10,2013-09-22 04:48:00,
2013-09-21 23:03:00,63.2,53.0,29.82,NW,307,0.0,0.0,70,0.00,,,0.00,weatherlink.com 1.10,2013-09-22 05:03:00,
2013-09-21 23:18:00,62.6,53.0,29.82,NW,306,0.0,0.0,72,0.00,,,0.00,weatherlink.com 1.10,2013-09-22 05:18:00,
2013-09-21 23:33:00,63.4,55.0,29.82,WNW,291,0.0,1.0,75,0.00,,,0.00,weatherlink.com 1.10,2013-09-22 05:33:00,
2013-09-21 23:48:00,64.3,55.0,29.82,WNW,297,0.0,2.0,73,0.00,,,0.00,weatherlink.com 1.10,2013-09-22 05:48:00,